Green Fast — ZDHA9 — position and weather

sailwx.info

Track history (hours):
 
Tides and Currents Weather Stations Pressure Air Temp Water Temp Dewpoint Dewpoint Depression Visibility Wind Speed Wind Dir Waves Ship Positions

Green Fast

Last reported at 2014-Aug-02 02:31 UTC. Time now 2014-Aug-02 02:50 UTC.
Position N 39°13' E 009°04'.

Length 118 m; draft 7 m.

Type: Cargo ship. MMSI: 236294000.

Date/timePositionNaut miles runAvg speedWind from/ knotsBaromVisibWave heightAir tempDewpointWater temp
2014-Aug-02 02:31N 39°13' E 009°04'0 0.0
2014-Aug-02 01:31N 39°13' E 009°04'0 0.0
2014-Aug-02 00:31N 39°13' E 009°04'0 0.0
2014-Aug-01 23:31N 39°13' E 009°04'0 0.0
2014-Aug-01 22:31N 39°13' E 009°04'0 0.0
2014-Aug-01 21:31N 39°13' E 009°04'0 0.0
2014-Aug-01 20:28N 39°13' E 009°04'0 0.0
2014-Aug-01 19:31N 39°13' E 009°04'0 0.0
2014-Aug-01 18:33N 39°13' E 009°04'0 0.0
2014-Aug-01 17:33N 39°13' E 009°04'0 0.0
2014-Aug-01 16:33N 39°13' E 009°04'0 0.0
2014-Aug-01 15:33N 39°13' E 009°04'0 0.0
2014-Aug-01 14:33N 39°13' E 009°04'0 0.0
2014-Aug-01 13:33N 39°13' E 009°04'0 0.0
2014-Aug-01 12:33N 39°13' E 009°04'0 0.0
2014-Aug-01 11:33N 39°13' E 009°04'0 0.0
2014-Aug-01 10:33N 39°13' E 009°04'0 0.0
2014-Aug-01 09:33N 39°13' E 009°04'0 0.0
2014-Aug-01 08:33N 39°13' E 009°04'0 0.0
2014-Aug-01 07:33N 39°13' E 009°04'0 0.0
2014-Aug-01 06:33N 39°13' E 009°04'0 0.0
2014-Aug-01 05:33N 39°13' E 009°04'0 0.0
2014-Aug-01 04:33N 39°13' E 009°04'7 7.0
2014-Aug-01 03:33N 39°07' E 009°09'8 8.3
2014-Aug-01 02:33N 39°03' E 009°18'8 8.1
2014-Aug-01 01:33N 38°60' E 009°27'8 8.0
2014-Aug-01 00:32N 38°56' E 009°37'8 8.3
2014-Jul-31 23:33N 38°53' E 009°47'8 8.2
2014-Jul-31 22:33N 38°50' E 009°56'  
2014-Jul-27 01:06N 36°48' E 010°16'0 0.0
2014-Jul-27 00:33N 36°48' E 010°16'0 0.0
2014-Jul-26 23:33N 36°48' E 010°16'0 0.0
2014-Jul-26 22:30N 36°48' E 010°16'0 0.0
2014-Jul-25 06:33N 36°48' E 010°16'0 0.0
2014-Jul-25 05:30N 36°48' E 010°16'  
Track history (hours):
 
Tides and Currents Weather Stations Pressure Air Temp Water Temp Dewpoint Dewpoint Depression Visibility Wind Speed Wind Dir Waves Ship Positions

Green Fast

Last reported at 2014-Aug-02 02:31 UTC. Time now 2014-Aug-02 02:50 UTC.
Position N 39°13' E 009°04'.

Length 118 m; draft 7 m.

Type: Cargo ship. MMSI: 236294000.

Date/timePositionNaut miles runAvg speedWind from/ knotsBaromVisibWave heightAir tempDewpointWater temp
2014-Aug-02 02:31N 39°13' E 009°04'0 0.0
2014-Aug-02 01:31N 39°13' E 009°04'0 0.0
2014-Aug-02 00:31N 39°13' E 009°04'0 0.0
2014-Aug-01 23:31N 39°13' E 009°04'0 0.0
2014-Aug-01 22:31N 39°13' E 009°04'0 0.0
2014-Aug-01 21:31N 39°13' E 009°04'0 0.0
2014-Aug-01 20:28N 39°13' E 009°04'0 0.0
2014-Aug-01 19:31N 39°13' E 009°04'0 0.0
2014-Aug-01 18:33N 39°13' E 009°04'0 0.0
2014-Aug-01 17:33N 39°13' E 009°04'0 0.0
2014-Aug-01 16:33N 39°13' E 009°04'0 0.0
2014-Aug-01 15:33N 39°13' E 009°04'0 0.0
2014-Aug-01 14:33N 39°13' E 009°04'0 0.0
2014-Aug-01 13:33N 39°13' E 009°04'0 0.0
2014-Aug-01 12:33N 39°13' E 009°04'0 0.0
2014-Aug-01 11:33N 39°13' E 009°04'0 0.0
2014-Aug-01 10:33N 39°13' E 009°04'0 0.0
2014-Aug-01 09:33N 39°13' E 009°04'0 0.0
2014-Aug-01 08:33N 39°13' E 009°04'0 0.0
2014-Aug-01 07:33N 39°13' E 009°04'0 0.0
2014-Aug-01 06:33N 39°13' E 009°04'0 0.0
2014-Aug-01 05:33N 39°13' E 009°04'0 0.0
2014-Aug-01 04:33N 39°13' E 009°04'7 7.0
2014-Aug-01 03:33N 39°07' E 009°09'8 8.3
2014-Aug-01 02:33N 39°03' E 009°18'8 8.1
2014-Aug-01 01:33N 38°60' E 009°27'8 8.0
2014-Aug-01 00:32N 38°56' E 009°37'8 8.3
2014-Jul-31 23:33N 38°53' E 009°47'8 8.2
2014-Jul-31 22:33N 38°50' E 009°56'  
2014-Jul-27 01:06N 36°48' E 010°16'0 0.0
2014-Jul-27 00:33N 36°48' E 010°16'0 0.0
2014-Jul-26 23:33N 36°48' E 010°16'0 0.0
2014-Jul-26 22:30N 36°48' E 010°16'0 0.0
2014-Jul-25 06:33N 36°48' E 010°16'0 0.0
2014-Jul-25 05:30N 36°48' E 010°16'  

Dump ship's entire track history